createdAt,value
2023-07-25T00:00:28.277Z,99612.47
2023-07-25T00:02:59.039Z,99612.91
2023-07-25T00:05:29.514Z,99606.06
2023-07-25T00:07:59.239Z,99603.66
2023-07-25T00:10:29.398Z,99609.84
2023-07-25T00:12:59.299Z,99599.34
2023-07-25T00:15:31.466Z,99605.94
2023-07-25T00:18:01.817Z,99602.38
2023-07-25T00:20:32.292Z,99597.59
2023-07-25T00:23:02.751Z,99608.63
2023-07-25T00:25:33.172Z,99611.13
2023-07-25T00:28:03.831Z,99609.22
2023-07-25T00:30:36.119Z,99607.25
2023-07-25T00:33:06.626Z,99605.31
2023-07-25T00:35:37.092Z,99619.22
2023-07-25T00:38:07.291Z,99616.84
2023-07-25T00:40:42.392Z,99612.38
2023-07-25T00:43:12.252Z,99609.63
2023-07-25T00:45:44.859Z,99617.41
2023-07-25T00:48:15.770Z,99619.91
2023-07-25T00:50:46.307Z,99613.03
2023-07-25T00:53:18.158Z,99607.78
2023-07-25T00:55:50.357Z,99608.69
2023-07-25T00:58:21.182Z,99607.13
2023-07-25T01:00:53.508Z,99607.13
2023-07-25T01:03:23.896Z,99612.00
2023-07-25T01:05:55.817Z,99612.00
2023-07-25T01:08:25.844Z,99610.41
2023-07-25T01:10:55.792Z,99612.00
2023-07-25T01:13:26.737Z,99606.75
2023-07-25T01:16:00.910Z,99617.34
2023-07-25T01:18:32.564Z,99615.75
2023-07-25T01:21:04.558Z,99611.75
2023-07-25T01:23:35.785Z,99617.94
2023-07-25T01:26:07.701Z,99615.06
2023-07-25T01:28:38.840Z,99612.66
2023-07-25T01:31:09.216Z,99616.78
2023-07-25T01:33:39.737Z,99613.94
2023-07-25T01:36:10.124Z,99618.81
2023-07-25T01:38:40.132Z,99615.19
2023-07-25T01:41:11.380Z,99621.66
2023-07-25T01:43:41.396Z,99626.13
2023-07-25T01:46:11.820Z,99624.53
2023-07-25T01:48:42.241Z,99620.88
2023-07-25T01:51:12.223Z,99624.53
2023-07-25T01:53:42.410Z,99626.59
2023-07-25T01:56:14.662Z,99625.34
2023-07-25T01:58:44.335Z,99628.97
2023-07-25T02:01:14.088Z,99625.34
2023-07-25T02:03:44.786Z,99630.22
2023-07-25T02:06:15.360Z,99616.44
2023-07-25T02:08:45.788Z,99617.69
2023-07-25T02:11:18.324Z,99618.09
2023-07-25T02:13:48.869Z,99621.84
2023-07-25T02:16:18.943Z,99632.44
2023-07-25T02:18:49.248Z,99623.09
2023-07-25T02:21:19.596Z,99629.59
2023-07-25T02:23:50.062Z,99638.94
2023-07-25T02:26:21.919Z,99632.00
2023-07-25T02:28:52.405Z,99645.44
2023-07-25T02:31:22.773Z,99646.25
2023-07-25T02:33:53.302Z,99644.19
2023-07-25T02:36:23.238Z,99645.00
2023-07-25T02:38:55.042Z,99650.25
2023-07-25T02:41:27.336Z,99647.84
2023-07-25T02:43:57.694Z,99649.53
2023-07-25T02:46:27.901Z,99654.09
2023-07-25T02:48:57.660Z,99652.13
2023-07-25T02:51:26.249Z,99658.75
2023-07-25T02:53:56.596Z,99656.00
2023-07-25T02:56:30.326Z,99655.28
2023-07-25T02:59:00.687Z,99664.41
2023-07-25T03:01:31.092Z,99673.84
2023-07-25T03:04:01.752Z,99686.47
2023-07-25T03:06:32.039Z,99682.03
2023-07-25T03:09:01.916Z,99684.09
2023-07-25T03:11:34.080Z,99685.66
2023-07-25T03:14:04.835Z,99688.97
2023-07-25T03:16:35.789Z,99689.44
2023-07-25T03:19:06.131Z,99688.19
2023-07-25T03:21:36.626Z,99687.38
2023-07-25T03:24:07.398Z,99678.81
2023-07-25T03:26:39.929Z,99673.13
2023-07-25T03:29:09.795Z,99673.56
2023-07-25T03:31:40.282Z,99675.19
2023-07-25T03:34:10.870Z,99671.50
2023-07-25T03:36:41.222Z,99674.38
2023-07-25T03:39:11.075Z,99681.66
2023-07-25T03:41:43.346Z,99674.72
2023-07-25T03:44:19.177Z,99682.03
2023-07-25T03:46:49.129Z,99682.47
2023-07-25T03:49:19.834Z,99678.03
2023-07-25T03:51:50.285Z,99690.22
2023-07-25T03:54:25.246Z,99699.56
2023-07-25T03:56:57.142Z,99710.50
2023-07-25T03:59:27.604Z,99714.16
2023-07-25T04:01:57.471Z,99713.25
2023-07-25T04:04:27.288Z,99714.09
2023-07-25T04:06:57.587Z,99716.00
2023-07-25T04:09:28.079Z,99713.97
2023-07-25T04:12:00.034Z,99714.34
2023-07-25T04:14:30.373Z,99713.06
2023-07-25T04:17:00.905Z,99730.16
2023-07-25T04:19:31.407Z,99731.78
2023-07-25T04:22:01.676Z,99736.22
2023-07-25T04:24:32.131Z,99734.97
2023-07-25T04:27:04.647Z,99748.34
2023-07-25T04:29:34.647Z,99749.84
2023-07-25T04:32:04.531Z,99748.50
2023-07-25T04:34:34.969Z,99749.22
2023-07-25T04:37:05.450Z,99744.69
2023-07-25T04:39:35.818Z,99740.94
2023-07-25T04:42:08.849Z,99746.56
2023-07-25T04:44:39.180Z,99755.00
2023-07-25T04:47:09.702Z,99759.38
2023-07-25T04:49:40.003Z,99753.56
2023-07-25T04:52:11.069Z,99760.31
2023-07-25T04:54:41.489Z,99757.34
2023-07-25T04:57:13.946Z,99764.59
2023-07-25T04:59:44.141Z,99756.72
2023-07-25T05:02:14.211Z,99762.31
2023-07-25T05:04:44.293Z,99762.56
2023-07-25T05:07:14.723Z,99772.66
2023-07-25T05:09:45.389Z,99775.31
2023-07-25T05:12:17.906Z,99780.44
2023-07-25T05:14:48.493Z,99779.09
2023-07-25T05:17:18.670Z,99782.66
2023-07-25T05:19:50.678Z,99777.63
2023-07-25T05:22:21.124Z,99778.34
2023-07-25T05:24:52.019Z,99765.22
2023-07-25T05:27:23.945Z,99774.91
2023-07-25T05:29:54.555Z,99772.41
2023-07-25T05:32:25.826Z,99780.06
2023-07-25T05:34:56.305Z,99778.34
2023-07-25T05:37:36.273Z,99779.50
2023-07-25T05:40:08.070Z,99770.84
2023-07-25T05:42:40.057Z,99776.47
2023-07-25T05:45:11.488Z,99778.41
2023-07-25T05:47:41.918Z,99774.66
2023-07-25T05:50:13.605Z,99772.50
2023-07-25T05:52:43.688Z,99776.84
2023-07-25T05:55:14.093Z,99774.22
2023-07-25T05:57:46.007Z,99784.59
2023-07-25T06:00:17.021Z,99784.50
2023-07-25T06:02:46.840Z,99781.06
2023-07-25T06:05:16.631Z,99786.22
2023-07-25T06:07:47.006Z,99782.00
2023-07-25T06:10:17.502Z,99776.19
2023-07-25T06:12:49.966Z,99784.16
2023-07-25T06:15:20.781Z,99772.19
2023-07-25T06:17:50.861Z,99763.00
2023-07-25T06:20:21.695Z,99767.34
2023-07-25T06:22:52.714Z,99767.13
2023-07-25T06:25:23.200Z,99777.97
2023-07-25T06:27:55.419Z,99769.13
2023-07-25T06:30:25.888Z,99769.00
2023-07-25T06:32:57.019Z,99770.53
2023-07-25T06:35:26.706Z,99771.19
2023-07-25T06:37:57.148Z,99771.41
2023-07-25T06:40:27.276Z,99783.56
2023-07-25T06:42:59.450Z,99782.94
2023-07-25T06:45:30.231Z,99779.97
2023-07-25T06:48:00.670Z,99785.53
2023-07-25T06:50:31.132Z,99784.97
2023-07-25T06:53:01.444Z,99789.31
2023-07-25T06:55:31.413Z,99787.56
2023-07-25T06:58:03.683Z,99788.69
2023-07-25T07:00:34.220Z,99779.19
2023-07-25T07:03:04.655Z,99779.56
2023-07-25T07:05:37.190Z,99776.56
2023-07-25T07:08:08.458Z,99770.28
2023-07-25T07:10:38.903Z,99768.88
2023-07-25T07:13:11.249Z,99770.34
2023-07-25T07:15:41.457Z,99766.53
2023-07-25T07:18:12.076Z,99772.13
2023-07-25T07:20:42.558Z,99772.00
2023-07-25T07:23:12.880Z,99769.78
2023-07-25T07:25:43.466Z,99765.66
2023-07-25T07:28:15.962Z,99767.13
2023-07-25T07:30:51.922Z,99762.06
2023-07-25T07:33:22.038Z,99759.06
2023-07-25T07:35:52.193Z,99758.94
2023-07-25T07:38:22.471Z,99765.81
2023-07-25T07:40:52.590Z,99770.59
2023-07-25T07:43:24.390Z,99763.81
2023-07-25T07:45:54.538Z,99759.53
2023-07-25T07:48:24.889Z,99762.59
2023-07-25T07:50:54.988Z,99759.09
2023-07-25T07:53:25.426Z,99765.50
2023-07-25T07:55:55.571Z,99757.56
2023-07-25T07:58:27.662Z,99756.16
2023-07-25T08:00:58.159Z,99755.22
2023-07-25T08:03:28.101Z,99757.94
2023-07-25T08:06:00.454Z,99749.22
2023-07-25T08:08:30.763Z,99751.13
2023-07-25T08:11:00.873Z,99749.06
2023-07-25T08:13:32.680Z,99752.25
2023-07-25T08:16:03.184Z,99753.84
2023-07-25T08:18:33.694Z,99754.50
2023-07-25T08:21:04.504Z,99754.34
2023-07-25T08:23:34.850Z,99748.47
2023-07-25T08:26:05.102Z,99749.13
2023-07-25T08:28:37.566Z,99746.59
2023-07-25T08:31:08.173Z,99741.50
2023-07-25T08:33:38.509Z,99749.16
2023-07-25T08:36:08.679Z,99745.81
2023-07-25T08:38:39.724Z,99738.00
2023-07-25T08:41:15.974Z,99746.13
2023-07-25T08:43:49.420Z,99737.19
2023-07-25T08:46:23.720Z,99728.28
2023-07-25T08:49:03.167Z,99732.44
2023-07-25T08:51:40.379Z,99744.34
2023-07-25T08:54:21.910Z,99727.97
2023-07-25T08:56:53.636Z,99733.22
2023-07-25T08:59:27.270Z,99731.94
2023-07-25T09:01:58.901Z,99740.88
2023-07-25T09:04:31.806Z,99739.47
2023-07-25T09:07:04.264Z,99739.81
2023-07-25T09:09:34.149Z,99740.44
2023-07-25T09:12:04.778Z,99734.56
2023-07-25T09:14:38.228Z,99729.16
2023-07-25T09:17:09.669Z,99730.75
2023-07-25T09:19:40.050Z,99720.06
2023-07-25T09:22:30.588Z,99729.00
2023-07-25T09:25:01.909Z,99716.72
2023-07-25T09:27:31.763Z,99732.34
2023-07-25T09:30:04.524Z,99718.78
2023-07-25T09:32:35.237Z,99721.97
2023-07-25T09:35:07.688Z,99710.06
2023-07-25T09:37:38.175Z,99707.47
2023-07-25T09:40:13.379Z,99704.16
2023-07-25T09:42:45.168Z,99704.44
2023-07-25T09:45:16.904Z,99703.03
2023-07-25T09:47:47.084Z,99700.03
2023-07-25T09:50:17.375Z,99695.88
2023-07-25T09:52:47.968Z,99692.03
2023-07-25T09:55:18.008Z,99693.63
2023-07-25T09:57:48.641Z,99689.00
2023-07-25T10:00:22.255Z,99684.84
2023-07-25T10:02:53.601Z,99680.41
2023-07-25T10:05:24.864Z,99677.06
2023-07-25T10:07:57.998Z,99683.13
2023-07-25T10:10:29.819Z,99688.38
2023-07-25T10:13:00.583Z,99674.38
2023-07-25T10:15:33.441Z,99676.75
2023-07-25T10:18:08.403Z,99664.78
2023-07-25T10:20:38.392Z,99668.47
2023-07-25T10:23:16.137Z,99667.53
2023-07-25T10:25:46.085Z,99671.97
2023-07-25T10:28:16.542Z,99660.47
2023-07-25T10:30:50.340Z,99671.00
2023-07-25T10:33:20.697Z,99669.25
2023-07-25T10:35:54.523Z,99665.44
2023-07-25T10:38:33.856Z,99665.75
2023-07-25T10:41:15.118Z,99657.31
2023-07-25T10:44:03.275Z,99670.38
2023-07-25T10:46:38.025Z,99662.72
2023-07-25T10:49:18.677Z,99671.00
2023-07-25T10:51:54.272Z,99667.53
2023-07-25T10:54:26.391Z,99667.22
2023-07-25T10:57:19.038Z,99666.88
2023-07-25T11:00:05.968Z,99659.69
2023-07-25T11:02:40.721Z,99662.06
2023-07-25T11:05:26.910Z,99670.25
2023-07-25T11:08:01.331Z,99655.09
2023-07-25T11:10:35.889Z,99668.94
2023-07-25T11:13:06.321Z,99662.75
2023-07-25T11:15:47.192Z,99657.78
2023-07-25T11:18:22.218Z,99665.28
2023-07-25T11:21:02.723Z,99664.50
2023-07-25T11:23:34.373Z,99665.28
2023-07-25T11:26:08.920Z,99673.13
2023-07-25T11:28:43.108Z,99674.38
2023-07-25T11:31:14.003Z,99671.16
2023-07-25T11:33:47.229Z,99669.06
2023-07-25T11:36:17.152Z,99662.22
2023-07-25T11:38:50.627Z,99668.78
2023-07-25T11:41:21.497Z,99671.31
2023-07-25T11:43:54.049Z,99665.75
2023-07-25T11:46:24.634Z,99671.50
2023-07-25T11:49:00.271Z,99668.31
2023-07-25T11:51:32.754Z,99668.47
2023-07-25T11:54:08.203Z,99672.59
2023-07-25T11:56:40.295Z,99663.34
2023-07-25T11:59:16.921Z,99674.50
2023-07-25T12:01:47.941Z,99672.13
2023-07-25T12:04:24.359Z,99661.44
2023-07-25T12:07:02.303Z,99666.88
2023-07-25T12:09:34.246Z,99666.53
2023-07-25T12:12:05.641Z,99673.22
2023-07-25T12:14:36.226Z,99672.91
2023-07-25T12:17:07.306Z,99668.13
2023-07-25T12:19:41.064Z,99663.34
2023-07-25T12:22:12.961Z,99664.28
2023-07-25T12:24:47.160Z,99669.25
2023-07-25T12:27:23.976Z,99666.06
2023-07-25T12:29:55.798Z,99671.00
2023-07-25T12:32:34.804Z,99666.53
2023-07-25T12:35:18.645Z,99663.66
2023-07-25T12:37:54.302Z,99659.16
2023-07-25T12:40:27.091Z,99657.09
2023-07-25T12:43:04.304Z,99661.22
2023-07-25T12:45:39.418Z,99654.38
2023-07-25T12:48:11.077Z,99648.81
2023-07-25T12:50:47.336Z,99651.34
2023-07-25T12:53:18.554Z,99652.28
2023-07-25T12:55:50.572Z,99659.00
2023-07-25T12:58:22.689Z,99653.41
2023-07-25T13:00:55.408Z,99657.72
2023-07-25T13:03:30.236Z,99652.09
2023-07-25T13:06:06.727Z,99649.41
2023-07-25T13:08:38.842Z,99652.41
2023-07-25T13:11:10.339Z,99662.78
2023-07-25T13:13:42.880Z,99649.03
2023-07-25T13:16:17.182Z,99650.81
2023-07-25T13:18:48.854Z,99647.56
2023-07-25T13:21:22.667Z,99651.72
2023-07-25T13:23:54.017Z,99648.53
2023-07-25T13:26:27.646Z,99644.53
2023-07-25T13:28:59.650Z,99651.22
2023-07-25T13:31:34.695Z,99644.34
2023-07-25T13:34:06.904Z,99646.09
2023-07-25T13:36:44.835Z,99647.06
2023-07-25T13:39:16.500Z,99654.53
2023-07-25T13:41:48.356Z,99648.94
2023-07-25T13:47:14.132Z,99650.34
2023-07-25T13:49:47.766Z,99649.25
2023-07-25T13:52:22.902Z,99644.78
2023-07-25T13:54:57.353Z,99640.00
2023-07-25T13:57:35.241Z,99642.50
2023-07-25T14:00:14.161Z,99641.72
2023-07-25T14:02:50.285Z,99645.53
2023-07-25T14:05:21.960Z,99641.06
2023-07-25T14:07:55.564Z,99647.28
2023-07-25T14:10:28.342Z,99644.53
2023-07-25T14:13:00.678Z,99649.59
2023-07-25T14:15:32.356Z,99650.84
2023-07-25T14:18:05.983Z,99646.88
2023-07-25T14:20:41.336Z,99648.13
2023-07-25T14:23:15.842Z,99646.53
2023-07-25T14:25:47.885Z,99638.78
2023-07-25T14:28:19.711Z,99643.22
2023-07-25T14:30:52.483Z,99646.09
2023-07-25T14:33:24.468Z,99645.28
2023-07-25T14:35:57.541Z,99632.72
2023-07-25T14:38:31.562Z,99634.78
2023-07-25T14:41:04.821Z,99643.81
2023-07-25T14:43:39.332Z,99636.50
2023-07-25T14:46:10.957Z,99632.03
2023-07-25T14:48:49.371Z,99629.66
2023-07-25T14:51:27.897Z,99632.19
2023-07-25T14:54:04.883Z,99631.88
2023-07-25T14:56:36.743Z,99638.38
2023-07-25T14:59:23.631Z,99638.38
2023-07-25T15:02:15.125Z,99643.78
2023-07-25T15:04:48.886Z,99641.06
2023-07-25T15:07:22.909Z,99642.31
2023-07-25T15:10:10.651Z,99633.75
2023-07-25T15:13:04.501Z,99645.34
2023-07-25T15:15:58.802Z,99647.06
2023-07-25T15:19:08.701Z,99649.25
2023-07-25T15:21:59.011Z,99655.47
2023-07-25T15:24:47.909Z,99653.06
2023-07-25T15:27:45.721Z,99650.66
2023-07-25T15:30:41.436Z,99652.41
2023-07-25T15:33:24.069Z,99646.34
2023-07-25T15:36:15.893Z,99651.25
2023-07-25T15:39:03.779Z,99650.59
2023-07-25T15:41:53.926Z,99656.78
2023-07-25T15:45:00.713Z,99654.38
2023-07-25T15:47:57.028Z,99646.41
2023-07-25T15:50:44.235Z,99650.53
2023-07-25T15:59:50.668Z,99654.09
2023-07-25T16:02:51.152Z,99653.75
2023-07-25T16:09:00.753Z,99663.44
2023-07-25T16:12:12.302Z,99654.50
2023-07-25T16:15:01.587Z,99660.72
2023-07-25T16:17:45.497Z,99666.88
2023-07-25T16:20:42.854Z,99658.78
2023-07-25T16:23:28.271Z,99668.25
2023-07-25T16:26:16.083Z,99669.19
2023-07-25T16:28:55.950Z,99667.28
2023-07-25T16:31:51.778Z,99673.00
2023-07-25T16:34:35.384Z,99674.66
2023-07-25T16:37:25.622Z,99679.25
2023-07-25T16:40:26.005Z,99675.28
2023-07-25T16:43:19.238Z,99683.50
2023-07-25T16:52:40.143Z,99688.66
2023-07-25T16:55:23.149Z,99679.31
2023-07-25T16:58:10.213Z,99691.22
2023-07-25T17:03:50.953Z,99699.09
2023-07-25T17:06:42.464Z,99703.22
2023-07-25T17:09:27.085Z,99699.22
2023-07-25T17:12:09.177Z,99703.81
2023-07-25T17:14:56.404Z,99707.94
2023-07-25T17:17:57.901Z,99703.13
2023-07-25T17:20:58.930Z,99708.97
2023-07-25T17:23:57.288Z,99701.31
2023-07-25T17:26:47.704Z,99717.31
2023-07-25T17:29:43.457Z,99720.63
2023-07-25T17:32:46.054Z,99718.22
2023-07-25T17:39:03.440Z,99715.59
2023-07-25T17:41:51.040Z,99726.66
2023-07-25T17:44:29.614Z,99727.47
2023-07-25T17:47:11.103Z,99743.00
2023-07-25T17:50:02.462Z,99732.03
2023-07-25T17:52:58.848Z,99734.56
2023-07-25T17:55:56.296Z,99733.41
2023-07-25T17:58:37.076Z,99746.56
2023-07-25T18:01:42.387Z,99747.03
2023-07-25T18:04:21.478Z,99737.31
2023-07-25T18:07:03.603Z,99752.03
2023-07-25T18:09:42.267Z,99743.94
2023-07-25T18:12:35.356Z,99739.94
2023-07-25T18:15:30.337Z,99742.44
2023-07-25T18:18:09.563Z,99739.72
2023-07-25T18:21:00.435Z,99743.34
2023-07-25T18:23:42.165Z,99755.25
2023-07-25T18:26:27.076Z,99751.56
2023-07-25T18:29:10.346Z,99743.81
2023-07-25T18:32:00.466Z,99756.50
2023-07-25T18:35:06.866Z,99754.06
2023-07-25T18:37:55.087Z,99767.56
2023-07-25T18:40:38.174Z,99760.25
2023-07-25T18:43:44.977Z,99766.78
2023-07-25T18:46:53.069Z,99776.59
2023-07-25T18:49:40.534Z,99768.47
2023-07-25T18:52:27.862Z,99776.59
2023-07-25T18:55:07.556Z,99782.31
2023-07-25T18:57:56.587Z,99777.84
2023-07-25T19:00:37.839Z,99777.03
2023-07-25T19:03:32.199Z,99780.72
2023-07-25T19:06:24.865Z,99775.00
2023-07-25T19:09:20.005Z,99774.19
2023-07-25T19:17:46.670Z,99779.09
2023-07-25T19:20:35.551Z,99771.78
2023-07-25T19:26:48.340Z,99769.03
2023-07-25T19:29:43.953Z,99770.31
2023-07-25T19:39:13.673Z,99772.88
2023-07-25T19:41:59.587Z,99769.59
2023-07-25T19:44:33.030Z,99781.00
2023-07-25T19:47:10.864Z,99776.13
2023-07-25T19:49:43.401Z,99777.38
2023-07-25T19:52:19.949Z,99783.88
2023-07-25T19:54:52.464Z,99778.97
2023-07-25T19:57:25.476Z,99780.22
2023-07-25T20:00:00.422Z,99776.56
2023-07-25T20:02:35.421Z,99775.75
2023-07-25T20:05:13.416Z,99775.75
2023-07-25T20:07:55.740Z,99777.81
2023-07-25T20:10:33.232Z,99772.53
2023-07-25T20:13:06.457Z,99781.09
2023-07-25T20:15:51.216Z,99776.63
2023-07-25T20:18:26.654Z,99777.88
2023-07-25T20:21:17.208Z,99777.09
2023-07-25T20:23:55.832Z,99773.47
2023-07-25T20:26:37.194Z,99774.72
2023-07-25T20:29:13.650Z,99768.19
2023-07-25T20:31:47.611Z,99775.97
2023-07-25T20:34:20.867Z,99778.00
2023-07-25T20:36:54.695Z,99779.25
2023-07-25T20:39:36.081Z,99784.53
2023-07-25T20:42:15.666Z,99777.66
2023-07-25T20:44:51.036Z,99780.50
2023-07-25T20:47:29.257Z,99778.94
2023-07-25T20:50:02.888Z,99769.56
2023-07-25T20:52:35.916Z,99773.66
2023-07-25T20:55:20.398Z,99769.19
2023-07-25T20:57:53.099Z,99771.25
2023-07-25T21:00:26.429Z,99783.94
2023-07-25T21:03:02.700Z,99783.16
2023-07-25T21:05:35.455Z,99781.53
2023-07-25T21:08:07.140Z,99778.69
2023-07-25T21:10:45.265Z,99779.13
2023-07-25T21:13:19.857Z,99777.88
2023-07-25T21:15:55.783Z,99766.91
2023-07-25T21:18:30.021Z,99760.41
2023-07-25T21:21:06.612Z,99763.25
2023-07-25T21:23:40.467Z,99766.91
2023-07-25T21:26:13.442Z,99766.91
2023-07-25T21:28:44.861Z,99778.34
2023-07-25T21:31:17.852Z,99766.09
2023-07-25T21:33:53.623Z,99771.81
2023-07-25T21:36:25.511Z,99774.66
2023-07-25T21:38:58.136Z,99773.88
2023-07-25T21:41:46.426Z,99780.38
2023-07-25T21:44:18.523Z,99773.09
2023-07-25T21:46:53.669Z,99781.66
2023-07-25T21:49:26.130Z,99777.97
2023-07-25T21:51:59.721Z,99773.53
2023-07-25T21:54:34.808Z,99769.41
2023-07-25T21:57:18.730Z,99769.41
2023-07-25T21:59:51.148Z,99776.38
2023-07-25T22:02:26.654Z,99760.06
2023-07-25T22:05:00.960Z,99754.78
2023-07-25T22:07:41.181Z,99766.22
2023-07-25T22:10:14.464Z,99767.47
2023-07-25T22:12:53.481Z,99758.13
2023-07-25T22:15:30.322Z,99747.59
2023-07-25T22:18:02.667Z,99752.53
2023-07-25T22:20:45.803Z,99751.69
2023-07-25T22:23:25.662Z,99746.00
2023-07-25T22:26:04.048Z,99747.72
2023-07-25T22:28:40.224Z,99756.72
2023-07-25T22:31:16.105Z,99753.88
2023-07-25T22:33:49.836Z,99751.47
2023-07-25T22:36:23.118Z,99758.41
2023-07-25T22:38:56.125Z,99752.72
2023-07-25T22:41:26.810Z,99747.47
2023-07-25T22:44:00.635Z,99753.16
2023-07-25T22:46:35.199Z,99745.84
2023-07-25T22:49:07.357Z,99750.78
2023-07-25T22:51:45.852Z,99754.88
2023-07-25T22:54:18.703Z,99750.44
2023-07-25T22:56:52.711Z,99754.06
2023-07-25T22:59:33.252Z,99750.44
2023-07-25T23:02:08.111Z,99757.38
2023-07-25T23:04:40.128Z,99759.44
2023-07-25T23:07:15.489Z,99757.84
2023-07-25T23:09:48.725Z,99762.72
2023-07-25T23:12:24.014Z,99761.13
2023-07-25T23:15:01.439Z,99755.88
2023-07-25T23:17:36.726Z,99759.97
2023-07-25T23:20:12.950Z,99762.06
2023-07-25T23:22:43.669Z,99756.34
2023-07-25T23:25:15.759Z,99755.53
2023-07-25T23:27:47.209Z,99756.34
2023-07-25T23:30:21.292Z,99755.88
2023-07-25T23:32:52.562Z,99752.56
2023-07-25T23:35:24.334Z,99753.38
2023-07-25T23:37:55.360Z,99751.69
2023-07-25T23:40:27.793Z,99754.53
2023-07-25T23:42:58.647Z,99763.91
2023-07-25T23:45:31.827Z,99763.91
2023-07-25T23:48:02.759Z,99765.94
2023-07-25T23:50:35.076Z,99767.19
2023-07-25T23:53:05.604Z,99766.41
2023-07-25T23:55:36.925Z,99769.69
2023-07-25T23:58:07.807Z,99768.09
